Time;durP1;ratioP1;P1;durP2;ratioP2;P2;SDS_P1;SDS_P2;PMS_P1;PMS_P2;Temp;Humidity;BMP_temperature;BMP_pressure;BME280_temperature;BME280_humidity;BME280_pressure;Samples;Min_cycle;Max_cycle;Signal;HPM_P1;HPM_P2
2021/12/24 00:01:21;;;;;;;154.73;66.30;;;;;;;6.07;100.00;100365.31;5075281;28;20348;-68
2021/12/24 00:03:46;;;;;;;150.10;63.15;;;;;;;6.12;100.00;100366.28;5075138;28;20028;-69
2021/12/24 00:06:13;;;;;;;143.35;68.95;;;;;;;6.10;100.00;100362.75;5074969;28;20029;-69
2021/12/24 00:08:39;;;;;;;136.75;62.72;;;;;;;6.11;100.00;100361.88;5075436;28;20032;-69
2021/12/24 00:11:05;;;;;;;139.68;62.88;;;;;;;6.10;100.00;100347.00;5074881;28;20025;-68
2021/12/24 00:13:35;;;;;;;133.30;57.42;;;;;;;6.08;100.00;100344.34;5074464;28;20395;-68
2021/12/24 00:16:09;;;;;;;123.65;59.78;;;;;;;6.11;100.00;100359.28;5075212;28;20040;-69
2021/12/24 00:37:02;;;;;;;110.63;59.88;;;;;;;6.27;100.00;100348.13;5074914;28;20094;-67
2021/12/24 00:39:27;;;;;;;112.47;55.15;;;;;;;6.30;100.00;100338.53;5074538;28;20029;-67
2021/12/24 00:41:53;;;;;;;120.68;61.38;;;;;;;6.31;100.00;100337.69;5074332;28;20017;-67
2021/12/24 00:44:18;;;;;;;116.53;59.38;;;;;;;6.31;100.00;100332.44;5074532;28;20163;-67
2021/12/24 00:46:43;;;;;;;111.82;56.95;;;;;;;6.28;100.00;100321.00;5074211;28;20090;-67
2021/12/24 00:49:09;;;;;;;112.22;56.10;;;;;;;6.32;100.00;100332.47;5074172;28;20028;-67
2021/12/24 00:56:55;;;;;;;107.57;57.08;;;;;;;6.38;100.00;100335.16;5074384;28;20059;-67
2021/12/24 00:59:21;;;;;;;106.22;58.53;;;;;;;6.41;100.00;100321.19;5073960;28;20016;-68
2021/12/24 01:01:46;;;;;;;103.05;55.15;;;;;;;6.40;100.00;100320.28;5074484;28;20403;-68
2021/12/24 01:04:11;;;;;;;108.97;57.78;;;;;;;6.42;100.00;100318.59;5073741;28;20526;-67
2021/12/24 01:06:37;;;;;;;110.50;57.35;;;;;;;6.44;100.00;100326.47;5073808;28;20112;-68
2021/12/24 01:09:04;;;;;;;111.97;60.38;;;;;;;6.45;100.00;100322.97;5073891;28;20036;-67
2021/12/24 01:11:30;;;;;;;114.35;58.15;;;;;;;6.51;100.00;100316.91;5073644;28;20032;-67
2021/12/24 01:13:57;;;;;;;118.35;59.55;;;;;;;6.51;100.00;100304.69;5073493;28;20048;-67
2021/12/24 01:16:30;;;;;;;122.47;59.40;;;;;;;6.52;100.00;100314.31;5073288;28;20112;-67
2021/12/24 01:19:03;;;;;;;120.07;58.60;;;;;;;6.54;100.00;100309.97;5073729;28;20020;-67
2021/12/24 01:24:08;;;;;;;134.13;64.95;;;;;;;6.60;100.00;100315.28;5073793;28;20068;-67
2021/12/24 01:42:48;;;;;;;170.82;81.57;;;;;;;6.75;100.00;100317.22;5047369;28;20040;-68
2021/12/24 01:45:22;;;;;;;186.90;81.90;;;;;;;6.77;100.00;100304.09;5051065;28;20040;-68
2021/12/24 01:47:49;;;;;;;192.65;84.90;;;;;;;6.82;100.00;100318.19;5047545;28;20147;-68
2021/12/24 01:50:16;;;;;;;200.95;87.43;;;;;;;6.82;100.00;100307.66;5051176;28;20032;-69
2021/12/24 01:52:41;;;;;;;208.38;86.85;;;;;;;6.82;100.00;100310.31;5050807;28;20435;-68
2021/12/24 01:55:08;;;;;;;221.20;89.57;;;;;;;6.87;100.00;100308.59;5051055;28;20075;-68
2021/12/24 01:57:36;;;;;;;201.65;83.80;;;;;;;6.93;100.00;100316.56;5051011;28;20373;-68
2021/12/24 02:00:05;;;;;;;196.02;82.40;;;;;;;6.95;100.00;100308.69;5050674;28;20036;-68
2021/12/24 02:02:31;;;;;;;190.95;85.63;;;;;;;6.96;100.00;100316.59;5050735;28;20033;-68
2021/12/24 02:04:57;;;;;;;202.40;84.80;;;;;;;6.96;100.00;100305.19;5053469;28;20021;-69
2021/12/24 02:07:22;;;;;;;187.40;85.38;;;;;;;7.00;100.00;100312.22;5072621;28;20033;-68
2021/12/24 02:09:47;;;;;;;183.15;81.80;;;;;;;7.02;100.00;100304.34;5073029;28;20028;-68
2021/12/24 02:12:14;;;;;;;193.32;82.82;;;;;;;7.00;100.00;100306.09;5072832;28;20038;-68
2021/12/24 02:14:40;;;;;;;188.50;81.75;;;;;;;7.06;100.00;100306.16;5072969;28;20028;-68
2021/12/24 02:17:35;;;;;;;184.73;81.55;;;;;;;7.07;100.00;100313.19;5072795;28;20020;-68
2021/12/24 02:28:36;;;;;;;187.48;80.95;;;;;;;7.09;100.00;100309.72;5072172;28;20047;-68
2021/12/24 02:31:03;;;;;;;181.93;76.00;;;;;;;7.12;100.00;100304.50;5070914;28;20452;-69
2021/12/24 02:33:29;;;;;;;188.32;84.93;;;;;;;7.10;100.00;100306.19;5072938;28;20418;-69
2021/12/24 02:35:54;;;;;;;175.77;81.97;;;;;;;7.16;100.00;100305.38;5072629;28;20052;-68
2021/12/24 02:38:20;;;;;;;188.48;81.10;;;;;;;7.13;100.00;100302.72;5072404;28;20028;-68
2021/12/24 02:40:46;;;;;;;191.55;81.95;;;;;;;7.15;100.00;100306.28;5072484;28;20032;-69
2021/12/24 02:43:15;;;;;;;191.52;85.10;;;;;;;7.14;100.00;100302.75;5072417;28;20028;-69
2021/12/24 02:45:43;;;;;;;205.45;90.15;;;;;;;7.12;100.00;100295.69;5072262;28;20032;-69
2021/12/24 02:48:25;;;;;;;202.88;85.53;;;;;;;7.17;100.00;100298.41;5072531;28;20051;-69
2021/12/24 02:56:26;;;;;;;214.57;88.90;;;;;;;7.19;100.00;100291.41;5072762;28;20437;-69
2021/12/24 02:58:52;;;;;;;223.88;90.65;;;;;;;7.22;100.00;100291.41;5072104;28;20103;-69
2021/12/24 03:01:22;;;;;;;225.45;92.45;;;;;;;7.18;100.00;100290.53;5072106;28;20032;-68
2021/12/24 03:03:49;;;;;;;233.18;91.95;;;;;;;7.19;100.00;100291.41;5068768;28;20024;-69
2021/12/24 03:06:15;;;;;;;224.50;86.88;;;;;;;7.16;100.00;100294.88;5068101;28;20178;-68
2021/12/24 03:08:41;;;;;;;236.52;91.78;;;;;;;7.17;100.00;100296.63;5072432;28;20024;-69
2021/12/24 03:11:07;;;;;;;235.60;89.90;;;;;;;7.22;100.00;100287.03;5072575;28;20023;-69
2021/12/24 03:13:35;;;;;;;228.30;87.30;;;;;;;7.20;100.00;100283.53;5071858;28;20107;-68
2021/12/24 03:16:01;;;;;;;232.10;89.65;;;;;;;7.26;100.00;100285.31;5072247;28;20025;-68
2021/12/24 03:18:30;;;;;;;238.25;88.80;;;;;;;7.24;100.00;100287.94;5072026;28;20047;-68
2021/12/24 03:21:19;;;;;;;231.85;91.93;;;;;;;7.27;100.00;100287.97;5072028;28;20021;-68
2021/12/24 03:24:33;;;;;;;236.52;89.47;;;;;;;7.25;100.00;100287.09;5072482;28;20468;-68
2021/12/24 03:26:40;;;;;;;225.48;86.28;;;;;;;7.23;100.00;100288.81;5070697;28;20068;-69
2021/12/24 03:29:09;;;;;;;232.02;92.22;;;;;;;7.26;100.00;100291.47;5071858;28;20028;-69
2021/12/24 03:31:37;;;;;;;239.23;91.80;;;;;;;7.30;100.00;100303.78;5071877;28;20028;-68
2021/12/24 03:34:03;;;;;;;230.27;89.72;;;;;;;7.29;100.00;100311.66;5072146;28;20500;-68
2021/12/24 03:36:28;;;;;;;219.98;87.75;;;;;;;7.26;100.00;100299.34;5071969;28;20020;-68
2021/12/24 03:38:54;;;;;;;232.52;88.80;;;;;;;7.27;100.00;100301.13;5074011;28;20021;-68
2021/12/24 03:41:20;;;;;;;223.15;86.15;;;;;;;7.30;100.00;100302.91;5075791;28;20032;-68
2021/12/24 03:43:46;;;;;;;218.65;83.68;;;;;;;7.35;100.00;100301.19;5075382;28;20018;-68
2021/12/24 03:46:15;;;;;;;211.30;82.50;;;;;;;7.35;100.00;100308.19;5075329;28;20040;-68
2021/12/24 03:48:55;;;;;;;206.68;81.00;;;;;;;7.34;100.00;100307.31;5075508;28;20471;-68
2021/12/24 03:56:33;;;;;;;188.60;78.75;;;;;;;7.40;100.00;100314.38;5073767;28;20097;-68
2021/12/24 03:58:58;;;;;;;178.55;74.40;;;;;;;7.43;100.00;100306.53;5075145;28;20081;-67
2021/12/24 04:01:24;;;;;;;172.30;70.13;;;;;;;7.39;100.00;100310.00;5075622;28;20062;-67
2021/12/24 04:03:49;;;;;;;163.35;66.65;;;;;;;7.39;100.00;100310.00;5075022;28;20071;-67
2021/12/24 04:06:15;;;;;;;156.88;64.18;;;;;;;7.43;100.00;100298.63;5074980;28;20027;-68
2021/12/24 04:08:40;;;;;;;143.18;60.13;;;;;;;7.46;100.00;100307.41;5075198;28;20016;-68
2021/12/24 04:11:06;;;;;;;145.43;59.72;;;;;;;7.47;100.00;100303.03;5075121;28;20041;-68
2021/12/24 04:13:32;;;;;;;129.48;59.28;;;;;;;7.48;100.00;100299.53;5074938;28;20146;-68
2021/12/24 04:15:58;;;;;;;129.88;57.53;;;;;;;7.46;100.00;100296.91;5074950;28;20051;-68
2021/12/24 04:18:55;;;;;;;112.78;52.03;;;;;;;7.44;100.00;100308.25;5074819;28;20028;-68
2021/12/24 04:26:39;;;;;;;103.80;47.90;;;;;;;7.41;100.00;100300.34;5074604;28;20486;-68
2021/12/24 04:29:05;;;;;;;95.32;45.88;;;;;;;7.38;100.00;100303.81;5074869;28;20020;-68
2021/12/24 04:34:16;;;;;;;83.93;42.78;;;;;;;7.40;100.00;100307.38;5072299;28;20036;-68
2021/12/24 04:39:47;;;;;;;74.35;35.65;;;;;;;7.40;100.00;100307.38;4992921;28;20117;-68
2021/12/24 05:03:48;;;;;;;59.75;31.27;;;;;;;7.36;100.00;100299.44;4989530;28;20088;-69
2021/12/24 05:08:54;;;;;;;62.35;32.83;;;;;;;7.35;100.00;100303.81;4992543;28;20041;-68
2021/12/24 05:11:20;;;;;;;59.47;32.00;;;;;;;7.35;100.00;100308.19;4983350;28;20092;-68
2021/12/24 05:13:47;;;;;;;58.63;32.17;;;;;;;7.35;100.00;100295.91;4973079;28;20038;-69
2021/12/24 05:16:26;;;;;;;59.45;31.75;;;;;;;7.36;100.00;100312.59;5008223;28;20127;-69
2021/12/24 05:21:33;;;;;;;59.58;31.55;;;;;;;7.30;100.00;100301.13;5070348;28;20455;-68
2021/12/24 05:21:51;;;;;;;59.78;32.25;;;;;;;7.31;100.00;100315.16;5073508;28;20036;-69
2021/12/24 05:24:22;;;;;;;61.58;29.75;;;;;;;7.27;100.00;100316.88;5073566;28;20024;-68
2021/12/24 05:26:56;;;;;;;58.97;30.15;;;;;;;7.26;100.00;100315.13;5069765;28;20028;-68
2021/12/24 05:29:22;;;;;;;55.58;28.90;;;;;;;7.28;100.00;100317.75;5070328;28;20025;-68
2021/12/24 05:31:49;;;;;;;56.92;29.30;;;;;;;7.25;100.00;100318.63;5073378;28;20077;-68
2021/12/24 05:34:17;;;;;;;53.85;28.63;;;;;;;7.25;100.00;100321.28;5105776;28;20043;-68
2021/12/24 05:36:43;;;;;;;55.05;28.67;;;;;;;7.23;100.00;100325.63;5073484;28;20017;-68
2021/12/24 05:39:10;;;;;;;56.10;28.55;;;;;;;7.24;100.00;100316.88;5073188;28;20032;-69
2021/12/24 05:41:36;;;;;;;52.97;27.17;;;;;;;7.29;100.00;100322.16;5073186;28;20035;-68
2021/12/24 05:44:03;;;;;;;53.88;27.23;;;;;;;7.29;100.00;100324.78;5073366;28;20099;-68
2021/12/24 05:46:29;;;;;;;60.17;29.77;;;;;;;7.25;100.00;100329.16;5071887;28;20401;-68
2021/12/24 05:48:54;;;;;;;58.65;27.10;;;;;;;7.25;100.00;100333.50;5073133;28;20152;-68
2021/12/24 05:51:20;;;;;;;57.83;27.25;;;;;;;7.24;100.00;100340.53;5073320;28;20024;-68
2021/12/24 05:53:47;;;;;;;51.85;26.23;;;;;;;7.23;100.00;100328.25;5068959;28;20020;-69
2021/12/24 05:56:12;;;;;;;54.85;27.20;;;;;;;7.24;100.00;100329.16;5072878;28;20028;-68
2021/12/24 05:58:38;;;;;;;53.75;24.77;;;;;;;7.24;100.00;100332.63;5073120;28;20065;-68
2021/12/24 06:01:04;;;;;;;50.45;24.40;;;;;;;7.22;100.00;100333.47;5073024;28;20069;-69
2021/12/24 06:03:29;;;;;;;54.83;25.77;;;;;;;7.20;100.00;100340.50;5073058;28;20475;-69
2021/12/24 06:05:55;;;;;;;48.08;23.42;;;;;;;7.23;100.00;100341.38;5072682;28;20544;-68
2021/12/24 06:08:20;;;;;;;51.85;22.55;;;;;;;7.28;100.00;100341.44;5073032;28;20031;-68
2021/12/24 06:10:45;;;;;;;50.05;24.45;;;;;;;7.25;100.00;100325.63;5072877;28;20086;-69
2021/12/24 06:13:11;;;;;;;49.85;23.40;;;;;;;7.25;100.00;100329.16;5072648;28;20106;-68
2021/12/24 06:15:45;;;;;;;46.63;22.70;;;;;;;7.24;100.00;100331.78;5072706;28;20479;-68
2021/12/24 06:18:19;;;;;;;46.40;22.15;;;;;;;7.23;100.00;100333.50;5072831;28;20119;-69
2021/12/24 06:20:45;;;;;;;46.55;21.55;;;;;;;7.26;100.00;100327.41;5072780;28;20032;-68
2021/12/24 06:23:10;;;;;;;48.53;22.20;;;;;;;7.27;100.00;100326.53;5072467;28;20032;-68
2021/12/24 06:25:36;;;;;;;44.58;22.17;;;;;;;7.26;100.00;100336.16;5072567;28;20031;-69
2021/12/24 06:28:02;;;;;;;44.22;21.08;;;;;;;7.26;100.00;100337.91;5072677;28;20031;-69
2021/12/24 06:30:29;;;;;;;46.20;21.10;;;;;;;7.28;100.00;100333.53;5072594;28;20039;-68
2021/12/24 06:32:58;;;;;;;43.55;19.75;;;;;;;7.23;100.00;100332.63;5072491;28;20103;-68
2021/12/24 06:35:24;;;;;;;44.67;21.00;;;;;;;7.23;100.00;100317.72;5072687;28;20075;-69
2021/12/24 06:37:52;;;;;;;47.58;21.75;;;;;;;7.21;100.00;100324.72;5069389;28;20025;-66
2021/12/24 06:40:17;;;;;;;43.13;20.90;;;;;;;7.24;100.00;100327.38;5070068;28;20028;-67
2021/12/24 06:42:43;;;;;;;44.55;19.60;;;;;;;7.21;100.00;100332.63;5070364;28;20039;-66
2021/12/24 06:45:10;;;;;;;43.85;20.52;;;;;;;7.24;100.00;100335.28;5069930;28;20225;-66
2021/12/24 06:47:35;;;;;;;43.20;20.00;;;;;;;7.24;100.00;100330.00;5069911;28;20024;-66
2021/12/24 06:50:00;;;;;;;42.28;19.52;;;;;;;7.22;100.00;100333.47;5070207;28;20093;-66
2021/12/24 06:52:26;;;;;;;41.42;19.52;;;;;;;7.24;100.00;100335.28;5070206;28;20491;-67
2021/12/24 06:54:51;;;;;;;41.67;19.02;;;;;;;7.25;100.00;100334.41;5069711;28;20032;-66
2021/12/24 06:57:19;;;;;;;41.97;19.90;;;;;;;7.30;100.00;100337.94;5069981;28;20024;-66
2021/12/24 06:59:45;;;;;;;41.15;18.45;;;;;;;7.29;100.00;100341.44;5069777;28;20465;-67
2021/12/24 07:02:10;;;;;;;40.97;18.83;;;;;;;7.32;100.00;100340.59;5069742;28;20052;-66
2021/12/24 07:04:35;;;;;;;45.72;20.90;;;;;;;7.29;100.00;100340.56;5068485;28;20513;-66
2021/12/24 07:07:01;;;;;;;44.30;20.20;;;;;;;7.29;100.00;100330.06;5069816;28;20068;-66
2021/12/24 07:09:26;;;;;;;44.40;20.80;;;;;;;7.31;100.00;100342.34;5070008;28;20021;-67
2021/12/24 07:11:52;;;;;;;43.15;21.10;;;;;;;7.35;100.00;100331.84;5069907;28;20206;-66
2021/12/24 07:14:17;;;;;;;42.55;19.85;;;;;;;7.32;100.00;100315.19;5072699;28;20079;-66
2021/12/24 07:16:43;;;;;;;38.63;19.70;;;;;;;7.36;100.00;100316.09;5073917;28;20407;-65
2021/12/24 07:19:08;;;;;;;40.50;20.27;;;;;;;7.38;100.00;100314.34;5073077;28;20562;-66
2021/12/24 07:21:36;;;;;;;42.58;21.05;;;;;;;7.40;100.00;100330.16;5073360;28;20033;-67
2021/12/24 07:24:03;;;;;;;46.53;21.63;;;;;;;7.42;100.00;100328.41;5073559;28;20017;-68
2021/12/24 07:26:28;;;;;;;45.00;21.27;;;;;;;7.44;100.00;100329.31;5073050;28;20047;-67
2021/12/24 07:28:53;;;;;;;46.90;21.73;;;;;;;7.39;100.00;100329.28;5073472;28;20104;-66
2021/12/24 07:31:19;;;;;;;43.03;21.60;;;;;;;7.39;100.00;100337.16;5069851;28;20111;-66
2021/12/24 07:33:44;;;;;;;44.65;23.23;;;;;;;7.43;100.00;100332.81;5071121;28;20047;-66
2021/12/24 07:36:09;;;;;;;46.45;22.50;;;;;;;7.44;100.00;100334.56;5071763;28;20037;-67
2021/12/24 07:38:35;;;;;;;43.80;23.67;;;;;;;7.40;100.00;100332.81;5073838;28;20377;-66
2021/12/24 07:41:01;;;;;;;49.83;24.17;;;;;;;7.38;100.00;100327.50;5072927;28;20025;-67
2021/12/24 07:43:26;;;;;;;48.35;24.73;;;;;;;7.32;100.00;100340.59;5073464;28;20081;-67
2021/12/24 07:45:54;;;;;;;46.83;24.98;;;;;;;7.30;100.00;100348.47;5072399;28;20463;-68
2021/12/24 07:48:27;;;;;;;47.50;25.40;;;;;;;7.31;100.00;100347.63;5073130;28;20024;-68
2021/12/24 07:53:19;;;;;;;51.17;24.80;;;;;;;7.36;100.00;100337.13;5073195;28;20087;-67
2021/12/24 07:55:45;;;;;;;52.53;25.67;;;;;;;7.30;100.00;100330.06;5072616;28;20037;-67
2021/12/24 07:58:13;;;;;;;53.20;25.60;;;;;;;7.30;100.00;100332.69;5072596;28;20024;-68
2021/12/24 08:00:39;;;;;;;48.92;25.33;;;;;;;7.27;100.00;100330.03;5073104;28;20024;-68
2021/12/24 08:03:04;;;;;;;47.35;24.80;;;;;;;7.27;100.00;100327.41;5072976;28;20074;-68
2021/12/24 08:05:33;;;;;;;49.45;24.95;;;;;;;7.30;100.00;100337.94;5072538;28;20032;-68
2021/12/24 08:07:58;;;;;;;51.03;25.25;;;;;;;7.22;100.00;100328.22;5072895;28;20043;-68
2021/12/24 08:10:25;;;;;;;47.83;24.08;;;;;;;7.17;100.00;100328.19;5073938;28;20371;-68
2021/12/24 08:12:51;;;;;;;50.88;24.13;;;;;;;7.10;100.00;100323.72;5074414;28;20044;-68
2021/12/24 08:15:17;;;;;;;51.17;24.35;;;;;;;7.08;100.00;100331.59;5074733;28;20093;-68
2021/12/24 08:17:44;;;;;;;48.80;24.25;;;;;;;7.05;100.00;100338.56;5074652;28;20086;-68
2021/12/24 08:20:11;;;;;;;51.53;24.33;;;;;;;7.09;100.00;100327.22;5074507;28;20029;-68
2021/12/24 08:22:36;;;;;;;49.40;24.27;;;;;;;7.05;100.00;100330.66;5074906;28;20035;-68
2021/12/24 08:25:06;;;;;;;45.00;23.23;;;;;;;7.07;100.00;100335.09;5073250;28;20485;-67
2021/12/24 08:27:32;;;;;;;49.95;24.30;;;;;;;7.09;100.00;100337.72;5073309;28;20024;-68
2021/12/24 08:29:58;;;;;;;46.30;22.33;;;;;;;7.14;100.00;100336.91;5075135;28;20383;-69
2021/12/24 08:32:23;;;;;;;46.47;23.02;;;;;;;7.13;100.00;100335.16;5073668;28;20037;-68
2021/12/24 08:34:51;;;;;;;43.33;22.20;;;;;;;7.17;100.00;100333.44;5074496;28;20025;-68
2021/12/24 08:37:17;;;;;;;47.03;23.88;;;;;;;7.20;100.00;100328.22;5074871;28;20032;-68
2021/12/24 08:39:42;;;;;;;47.67;22.80;;;;;;;7.26;100.00;100328.25;5074611;28;20032;-68
2021/12/24 08:42:08;;;;;;;46.05;22.95;;;;;;;7.27;100.00;100324.78;5074386;28;20031;-68
2021/12/24 08:44:34;;;;;;;45.42;22.50;;;;;;;7.29;100.00;100323.03;5066619;28;20085;-68
2021/12/24 08:47:01;;;;;;;47.53;21.98;;;;;;;7.35;100.00;100329.22;5070765;28;20501;-68
2021/12/24 08:49:30;;;;;;;47.85;22.83;;;;;;;7.33;100.00;100326.59;5070573;28;20028;-66
2021/12/24 08:51:55;;;;;;;48.15;23.05;;;;;;;7.38;100.00;100329.25;5070189;28;20086;-66
2021/12/24 08:54:21;;;;;;;44.63;20.98;;;;;;;7.40;100.00;100312.63;5068766;28;20128;-68
2021/12/24 08:56:48;;;;;;;46.75;22.13;;;;;;;7.41;100.00;100324.03;5070086;28;20029;-67
2021/12/24 08:59:14;;;;;;;45.33;21.70;;;;;;;7.44;100.00;100322.31;5070686;28;20028;-68
2021/12/24 09:01:42;;;;;;;45.55;20.83;;;;;;;7.45;100.00;100324.06;5070538;28;20039;-66
2021/12/24 09:04:12;;;;;;;43.88;22.77;;;;;;;7.47;100.00;100329.31;5070414;28;20028;-66
2021/12/24 09:06:38;;;;;;;46.38;22.08;;;;;;;7.44;100.00;100322.31;5069850;28;20043;-67
2021/12/24 09:09:06;;;;;;;47.83;22.80;;;;;;;7.44;100.00;100326.69;5068906;28;20455;-67
2021/12/24 09:11:35;;;;;;;44.08;21.88;;;;;;;7.46;100.00;100328.47;5070411;28;20433;-68
2021/12/24 09:14:00;;;;;;;46.28;23.52;;;;;;;7.46;100.00;100327.59;5071306;28;20042;-67
2021/12/24 09:16:26;;;;;;;45.25;22.38;;;;;;;7.48;100.00;100324.13;5071468;28;20123;-67
2021/12/24 09:18:59;;;;;;;46.78;23.42;;;;;;;7.48;100.00;100317.94;5070595;28;20031;-67
2021/12/24 09:21:25;;;;;;;52.40;24.73;;;;;;;7.49;100.00;100315.34;5069237;28;20101;-66
2021/12/24 09:23:53;;;;;;;48.17;24.30;;;;;;;7.50;100.00;100314.47;5070291;28;20066;-68
2021/12/24 09:26:24;;;;;;;49.03;23.85;;;;;;;7.54;100.00;100307.47;5071203;28;20608;-69
2021/12/24 09:28:49;;;;;;;49.75;25.30;;;;;;;7.56;100.00;100323.25;5069939;28;20033;-69
2021/12/24 09:31:14;;;;;;;49.50;24.95;;;;;;;7.60;100.00;100325.06;5071089;28;20481;-68
2021/12/24 09:33:40;;;;;;;50.75;24.02;;;;;;;7.58;100.00;100309.25;5071203;28;20107;-68
2021/12/24 09:36:06;;;;;;;54.88;24.65;;;;;;;7.59;100.00;100318.06;5070410;28;20062;-68
2021/12/24 09:38:32;;;;;;;47.08;22.98;;;;;;;7.58;100.00;100327.69;5068610;28;20035;-67
2021/12/24 09:40:57;;;;;;;48.17;23.55;;;;;;;7.61;100.00;100326.81;5069602;28;20028;-67
2021/12/24 09:43:24;;;;;;;46.78;22.95;;;;;;;7.58;100.00;100327.69;5069803;28;20133;-67
2021/12/24 09:45:50;;;;;;;48.13;23.42;;;;;;;7.59;100.00;100323.31;5066713;28;20467;-67
2021/12/24 09:48:15;;;;;;;43.60;20.67;;;;;;;7.66;100.00;100326.00;5068015;28;20099;-68
2021/12/24 09:50:40;;;;;;;45.72;22.48;;;;;;;7.58;100.00;100316.28;5071091;28;20035;-68
2021/12/24 09:53:06;;;;;;;50.97;23.17;;;;;;;7.59;100.00;100323.31;5072544;28;20028;-67
2021/12/24 09:55:31;;;;;;;49.03;22.98;;;;;;;7.63;100.00;100311.94;5072494;28;20020;-67
2021/12/24 09:57:57;;;;;;;47.97;22.75;;;;;;;7.63;100.00;100311.94;5071398;28;20494;-67
2021/12/24 10:00:24;;;;;;;46.70;22.52;;;;;;;7.66;100.00;100322.50;5072230;28;20514;-67
2021/12/24 10:02:55;;;;;;;44.35;22.70;;;;;;;7.63;100.00;100320.72;5072657;28;20537;-68
2021/12/24 10:05:36;;;;;;;52.88;24.33;;;;;;;7.62;100.00;100321.56;5073212;28;20031;-67
2021/12/24 10:08:20;;;;;;;49.70;24.65;;;;;;;7.64;100.00;100322.47;5072707;28;20042;-68
2021/12/24 10:10:50;;;;;;;52.85;25.00;;;;;;;7.62;100.00;100320.72;5070684;28;20048;-67
2021/12/24 10:13:41;;;;;;;52.28;25.35;;;;;;;7.62;100.00;100316.31;5068506;28;20039;-68
2021/12/24 10:16:27;;;;;;;51.08;27.55;;;;;;;7.60;100.00;100325.97;5068508;28;20025;-67
2021/12/24 10:18:55;;;;;;;57.25;29.45;;;;;;;7.61;100.00;100311.91;5068976;28;20582;-69
2021/12/24 10:21:26;;;;;;;57.60;28.63;;;;;;;7.64;100.00;100311.94;5068625;28;20502;-68
2021/12/24 10:23:56;;;;;;;60.08;30.60;;;;;;;7.66;100.00;100315.47;5070178;28;20032;-68
2021/12/24 10:26:31;;;;;;;56.08;30.02;;;;;;;7.69;100.00;100312.00;5069255;28;20033;-68
2021/12/24 10:28:59;;;;;;;56.78;28.75;;;;;;;7.72;100.00;100313.75;5067110;28;20025;-68
2021/12/24 10:31:49;;;;;;;55.58;28.20;;;;;;;7.75;100.00;100298.88;5068908;28;20020;-68
2021/12/24 10:34:26;;;;;;;58.38;30.35;;;;;;;7.76;100.00;100305.00;5058233;28;20076;-67
2021/12/24 10:36:58;;;;;;;55.70;29.00;;;;;;;7.78;100.00;100303.28;5062691;28;20487;-68
2021/12/24 10:39:50;;;;;;;51.45;26.77;;;;;;;7.84;100.00;100306.81;5060931;28;20041;-66
2021/12/24 10:42:37;;;;;;;55.45;27.48;;;;;;;7.86;100.00;100293.69;5058340;28;20044;-66
2021/12/24 10:45:09;;;;;;;55.55;27.60;;;;;;;7.90;100.00;100303.38;5060724;28;20060;-67
2021/12/24 10:47:39;;;;;;;53.83;27.25;;;;;;;7.90;100.00;100298.09;5057992;28;20040;-67
2021/12/24 10:50:28;;;;;;;52.30;28.00;;;;;;;7.96;100.00;100292.88;5066696;28;20503;-66
2021/12/24 10:55:23;;;;;;;55.50;27.85;;;;;;;7.99;100.00;100290.28;5066896;28;20407;-67
2021/12/24 10:57:51;;;;;;;53.00;27.92;;;;;;;8.03;100.00;100285.91;5070601;28;20037;-68
2021/12/24 11:00:19;;;;;;;51.78;28.73;;;;;;;8.03;100.00;100286.75;5070953;28;20033;-67
2021/12/24 11:02:53;;;;;;;50.00;27.13;;;;;;;8.04;100.00;100287.66;5053425;28;20536;-69
2021/12/24 11:05:23;;;;;;;56.30;30.38;;;;;;;8.05;100.00;100285.91;5071558;28;20047;-69
2021/12/24 11:07:48;;;;;;;61.50;32.20;;;;;;;8.03;100.00;100292.03;5071579;28;20115;-69
2021/12/24 11:10:22;;;;;;;66.88;36.70;;;;;;;8.03;100.00;100284.13;5071635;28;20459;-68
2021/12/24 11:12:54;;;;;;;68.05;36.83;;;;;;;8.02;100.00;100292.94;5073310;28;20048;-67
2021/12/24 11:15:29;;;;;;;71.97;39.95;;;;;;;8.04;100.00;100290.31;5071314;28;20036;-67
2021/12/24 11:18:07;;;;;;;72.13;40.10;;;;;;;8.07;100.00;100287.69;5072327;28;20024;-67
2021/12/24 11:20:33;;;;;;;69.97;38.92;;;;;;;8.12;100.00;100290.34;5073605;28;20047;-67
2021/12/24 11:23:03;;;;;;;70.13;38.15;;;;;;;8.14;100.00;100291.22;5074416;28;20434;-67
2021/12/24 11:25:40;;;;;;;73.05;39.58;;;;;;;8.14;100.00;100296.47;5075491;28;20012;-67
2021/12/24 11:28:06;;;;;;;71.53;40.55;;;;;;;8.09;100.00;100279.78;5074152;28;20107;-67
2021/12/24 11:30:34;;;;;;;69.20;39.80;;;;;;;8.02;100.00;100290.28;5072703;28;20021;-70
2021/12/24 11:32:59;;;;;;;76.43;38.38;;;;;;;8.00;100.00;100302.53;5073413;28;20028;-70
2021/12/24 11:35:26;;;;;;;71.35;40.75;;;;;;;8.01;100.00;100282.38;5073149;28;20025;-68
2021/12/24 11:37:53;;;;;;;75.45;39.97;;;;;;;8.00;100.00;100292.00;5073099;28;20032;-68
2021/12/24 11:40:20;;;;;;;80.82;41.58;;;;;;;8.02;100.00;100298.19;5072659;28;20437;-69
2021/12/24 11:42:58;;;;;;;71.60;41.63;;;;;;;8.04;100.00;100292.94;5072538;28;20082;-69
2021/12/24 11:45:25;;;;;;;79.00;41.83;;;;;;;8.05;100.00;100302.56;5072771;28;20024;-68
2021/12/24 11:47:51;;;;;;;77.20;41.58;;;;;;;8.07;100.00;100294.69;5072974;28;20099;-70
2021/12/24 11:50:17;;;;;;;72.05;41.60;;;;;;;8.06;100.00;100291.19;5072884;28;20025;-70
2021/12/24 11:52:46;;;;;;;74.88;40.58;;;;;;;8.07;100.00;100294.69;5072969;28;20051;-70
2021/12/24 11:55:12;;;;;;;71.35;40.17;;;;;;;8.05;100.00;100291.16;5072495;28;20099;-70
2021/12/24 11:57:59;;;;;;;76.50;42.08;;;;;;;8.05;100.00;100289.41;5071998;28;20115;-70
2021/12/24 12:00:32;;;;;;;70.30;40.28;;;;;;;8.06;100.00;100291.19;5071874;28;20121;-70
2021/12/24 12:02:58;;;;;;;73.68;39.95;;;;;;;8.00;100.00;100278.84;5071334;28;20029;-67
2021/12/24 12:05:31;;;;;;;71.25;40.25;;;;;;;7.97;100.00;100284.09;5073188;28;20098;-68
2021/12/24 12:08:25;;;;;;;76.88;42.40;;;;;;;8.02;100.00;100282.41;5071461;28;20068;-67
2021/12/24 12:10:57;;;;;;;81.68;42.05;;;;;;;8.09;100.00;100277.16;5071728;28;20033;-67
2021/12/24 12:13:40;;;;;;;68.00;39.55;;;;;;;8.18;100.00;100279.81;5073084;28;20387;-67
2021/12/24 12:16:08;;;;;;;;;;;;;;;8.20;100.00;100278.97;5074828;28;20510;-68
2021/12/24 12:18:44;;;;;;;66.05;38.45;;;;;;;8.17;100.00;100273.69;5074606;28;19912;-67
2021/12/24 12:21:34;;;;;;;64.10;36.53;;;;;;;8.20;100.00;100286.88;5074981;28;20021;-67
2021/12/24 12:26:49;;;;;;;65.28;36.28;;;;;;;8.14;100.00;100280.69;5071845;28;20032;-67
2021/12/24 12:29:50;;;;;;;64.78;36.47;;;;;;;8.08;100.00;100275.38;5072009;28;20025;-67
2021/12/24 12:32:15;;;;;;;64.13;36.33;;;;;;;8.03;100.00;100278.88;5069691;28;20032;-67
2021/12/24 12:34:41;;;;;;;63.72;35.42;;;;;;;7.98;100.00;100264.81;5071997;28;20365;-66
2021/12/24 12:37:14;;;;;;;63.92;34.42;;;;;;;7.95;100.00;100267.44;5071879;28;20135;-67
2021/12/24 12:39:40;;;;;;;72.40;38.08;;;;;;;7.91;100.00;100270.91;5071980;28;20048;-67
2021/12/24 12:42:06;;;;;;;65.15;37.03;;;;;;;7.85;100.00;100274.38;5069829;28;20474;-69
2021/12/24 12:44:33;;;;;;;71.40;38.67;;;;;;;7.84;100.00;100272.63;5068951;28;20051;-67
2021/12/24 12:47:21;;;;;;;64.05;36.97;;;;;;;7.83;100.00;100276.16;5066562;28;20488;-68
2021/12/24 12:49:47;;;;;;;64.88;35.25;;;;;;;7.84;100.00;100274.38;5066342;28;20056;-68
2021/12/24 12:52:30;;;;;;;66.43;37.15;;;;;;;7.85;100.00;100279.66;5066737;28;20055;-67
2021/12/24 12:54:58;;;;;;;68.00;38.17;;;;;;;7.83;100.00;100283.13;5052407;28;20024;-67
2021/12/24 12:57:27;;;;;;;68.68;37.03;;;;;;;7.88;100.00;100270.91;5067747;28;20073;-68
2021/12/24 13:00:08;;;;;;;60.65;34.97;;;;;;;7.97;100.00;100268.31;5067662;28;20487;-67